createdAt,value
2019-03-22T00:00:59.232Z,20.65
2019-03-22T00:03:32.580Z,20.64
2019-03-22T00:06:05.900Z,20.64
2019-03-22T00:08:39.337Z,20.63
2019-03-22T00:11:12.636Z,20.62
2019-03-22T00:13:46.029Z,20.60
2019-03-22T00:16:19.335Z,20.60
2019-03-22T00:18:53.564Z,20.58
2019-03-22T00:21:27.020Z,20.57
2019-03-22T00:24:00.531Z,20.56
2019-03-22T00:26:33.838Z,20.56
2019-03-22T00:29:07.239Z,20.53
2019-03-22T00:31:40.609Z,20.52
2019-03-22T00:34:16.685Z,20.52
2019-03-22T00:36:50.021Z,20.50
2019-03-22T00:39:23.367Z,20.49
2019-03-22T00:41:56.683Z,20.49
2019-03-22T00:44:30.167Z,20.48
2019-03-22T00:47:03.536Z,20.46
2019-03-22T00:49:37.074Z,20.44
2019-03-22T00:52:10.447Z,20.44
2019-03-22T00:54:44.566Z,20.44
2019-03-22T00:57:28.127Z,20.42
2019-03-22T00:59:53.888Z,20.42
2019-03-22T01:02:27.240Z,20.40
2019-03-22T01:05:01.624Z,20.40
2019-03-22T01:07:34.957Z,20.38
2019-03-22T01:10:10.367Z,20.37
2019-03-22T01:12:43.740Z,20.37
2019-03-22T01:15:17.057Z,20.35
2019-03-22T01:17:50.247Z,20.35
2019-03-22T01:20:23.551Z,20.33
2019-03-22T01:22:57.032Z,20.33
2019-03-22T01:25:30.349Z,20.32
2019-03-22T01:28:03.913Z,20.32
2019-03-22T01:30:37.231Z,20.30
2019-03-22T01:33:10.730Z,20.30
2019-03-22T01:35:43.932Z,20.28
2019-03-22T01:38:17.329Z,20.27
2019-03-22T01:40:50.635Z,20.26
2019-03-22T01:43:23.999Z,20.24
2019-03-22T01:45:57.311Z,20.24
2019-03-22T01:48:32.338Z,20.23
2019-03-22T01:51:05.747Z,20.23
2019-03-22T01:53:39.236Z,20.22
2019-03-22T01:56:12.831Z,20.22
2019-03-22T01:58:45.961Z,20.18
2019-03-22T02:01:19.741Z,20.19
2019-03-22T02:03:53.120Z,20.18
2019-03-22T02:06:28.095Z,20.17
2019-03-22T02:09:01.487Z,20.16
2019-03-22T02:11:36.285Z,20.14
2019-03-22T02:14:11.225Z,20.13
2019-03-22T02:16:44.588Z,20.12
2019-03-22T02:19:17.915Z,20.12
2019-03-22T02:21:51.104Z,20.12
2019-03-22T02:24:24.339Z,20.11
2019-03-22T02:26:57.733Z,20.09
2019-03-22T02:29:31.068Z,20.09
2019-03-22T02:32:04.424Z,20.08
2019-03-22T02:34:37.727Z,20.08
2019-03-22T02:37:11.076Z,20.06
2019-03-22T02:39:44.770Z,20.05
2019-03-22T02:42:19.804Z,20.04
2019-03-22T02:44:53.192Z,20.03
2019-03-22T02:47:26.540Z,20.02
2019-03-22T02:50:00.479Z,20.00
2019-03-22T02:52:34.101Z,19.99
2019-03-22T02:55:08.698Z,19.99
2019-03-22T02:57:43.002Z,19.98
2019-03-22T03:00:17.203Z,19.98
2019-03-22T03:02:50.603Z,19.96
2019-03-22T03:05:23.948Z,19.95
2019-03-22T03:07:57.466Z,19.95
2019-03-22T03:10:30.895Z,19.94
2019-03-22T03:13:04.344Z,19.92
2019-03-22T03:15:38.197Z,19.90
2019-03-22T03:18:11.590Z,19.91
2019-03-22T03:20:44.944Z,19.90
2019-03-22T03:23:18.491Z,19.88
2019-03-22T03:25:52.003Z,19.88
2019-03-22T03:28:36.008Z,19.87
2019-03-22T03:31:00.702Z,19.86
2019-03-22T03:33:34.063Z,19.86
2019-03-22T03:36:07.398Z,19.84
2019-03-22T03:38:40.796Z,19.83
2019-03-22T03:41:14.503Z,19.82
2019-03-22T03:43:47.861Z,19.82
2019-03-22T03:46:21.393Z,19.82
2019-03-22T03:48:54.603Z,19.80
2019-03-22T03:51:28.098Z,19.79
2019-03-22T03:54:01.398Z,19.79
2019-03-22T03:56:34.855Z,19.78
2019-03-22T03:59:08.193Z,19.76
2019-03-22T04:01:41.644Z,19.76
2019-03-22T04:04:15.034Z,19.76
2019-03-22T04:06:48.401Z,19.74
2019-03-22T04:09:21.859Z,19.73
2019-03-22T04:11:55.172Z,19.73
2019-03-22T04:14:28.624Z,19.71
2019-03-22T04:17:02.026Z,19.71
2019-03-22T04:19:35.570Z,19.70
2019-03-22T04:22:08.962Z,19.70
2019-03-22T04:24:43.999Z,19.68
2019-03-22T04:27:17.298Z,19.68
2019-03-22T04:29:50.740Z,19.67
2019-03-22T04:32:24.153Z,19.66
2019-03-22T04:34:57.569Z,19.64
2019-03-22T04:37:30.886Z,19.66
2019-03-22T04:40:21.786Z,19.65
2019-03-22T04:42:55.082Z,19.68
2019-03-22T04:45:29.515Z,19.74
2019-03-22T04:48:15.140Z,19.79
2019-03-22T04:50:50.141Z,19.85
2019-03-22T04:53:23.514Z,19.98
2019-03-22T04:55:59.567Z,20.10
2019-03-22T04:58:33.295Z,20.22
2019-03-22T05:01:06.834Z,20.36
2019-03-22T05:03:40.144Z,20.50
2019-03-22T05:06:13.486Z,20.66
2019-03-22T05:08:46.937Z,20.81
2019-03-22T05:11:20.271Z,20.98
2019-03-22T05:13:53.666Z,21.16
2019-03-22T05:16:27.166Z,21.31
2019-03-22T05:19:00.570Z,21.49
2019-03-22T05:21:33.922Z,21.62
2019-03-22T05:24:08.852Z,21.78
2019-03-22T05:26:42.193Z,21.92
2019-03-22T05:29:15.728Z,22.05
2019-03-22T05:31:57.006Z,22.15
2019-03-22T05:34:31.393Z,22.26
2019-03-22T05:37:04.687Z,22.32
2019-03-22T05:39:38.042Z,22.35
2019-03-22T05:42:12.974Z,22.37
2019-03-22T05:44:46.610Z,22.38
2019-03-22T05:47:22.640Z,22.37
2019-03-22T05:49:56.440Z,22.39
2019-03-22T05:52:29.765Z,22.36
2019-03-22T05:55:04.879Z,22.34
2019-03-22T05:57:38.198Z,22.33
2019-03-22T06:00:11.551Z,22.29
2019-03-22T06:02:44.874Z,22.26
2019-03-22T06:05:18.365Z,22.24
2019-03-22T06:07:51.712Z,22.20
2019-03-22T06:10:25.052Z,22.13
2019-03-22T06:12:58.569Z,22.15
2019-03-22T06:15:31.937Z,22.08
2019-03-22T06:18:05.246Z,22.06
2019-03-22T06:20:38.424Z,22.02
2019-03-22T06:23:11.747Z,21.98
2019-03-22T06:25:45.100Z,21.97
2019-03-22T06:28:18.729Z,21.96
2019-03-22T06:30:53.121Z,21.92
2019-03-22T06:33:26.489Z,21.86
2019-03-22T06:35:59.831Z,21.82
2019-03-22T06:38:33.536Z,21.78
2019-03-22T06:41:06.939Z,21.75
2019-03-22T06:43:40.758Z,21.68
2019-03-22T06:46:14.454Z,21.65
2019-03-22T06:48:48.288Z,21.58
2019-03-22T06:51:21.636Z,21.55
2019-03-22T06:53:55.065Z,21.46
2019-03-22T06:56:28.508Z,21.47
2019-03-22T06:59:02.030Z,21.44
2019-03-22T07:01:35.363Z,21.37
2019-03-22T07:04:09.063Z,21.35
2019-03-22T07:06:42.594Z,21.36
2019-03-22T07:09:16.794Z,21.37
2019-03-22T07:11:50.483Z,21.36
2019-03-22T07:14:23.790Z,20.74
2019-03-22T07:16:58.936Z,21.24
2019-03-22T07:19:33.570Z,21.22
2019-03-22T07:22:08.002Z,21.29
2019-03-22T07:24:41.524Z,21.29
2019-03-22T07:27:16.330Z,21.21
2019-03-22T07:29:50.830Z,21.18
2019-03-22T07:32:24.273Z,20.60
2019-03-22T07:34:58.003Z,21.16
2019-03-22T07:37:31.499Z,21.06
2019-03-22T07:40:05.901Z,21.12
2019-03-22T07:42:39.241Z,21.09
2019-03-22T07:45:12.729Z,21.10
2019-03-22T07:47:46.306Z,21.11
2019-03-22T07:50:20.774Z,21.09
2019-03-22T07:52:55.336Z,21.08
2019-03-22T07:55:28.853Z,21.11
2019-03-22T07:58:02.333Z,21.14
2019-03-22T08:00:35.847Z,21.10
2019-03-22T08:03:09.467Z,21.09
2019-03-22T08:05:50.725Z,21.09
2019-03-22T08:08:18.533Z,21.12
2019-03-22T08:10:51.844Z,21.06
2019-03-22T08:13:25.507Z,21.08
2019-03-22T08:15:59.071Z,21.04
2019-03-22T08:18:32.660Z,21.05
2019-03-22T08:21:06.192Z,21.05
2019-03-22T08:23:39.816Z,21.08
2019-03-22T08:26:13.282Z,21.06
2019-03-22T08:28:46.794Z,21.05
2019-03-22T08:31:20.146Z,21.04
2019-03-22T08:33:53.641Z,21.03
2019-03-22T08:36:26.919Z,20.99
2019-03-22T08:39:00.272Z,20.98
2019-03-22T08:41:33.663Z,20.99
2019-03-22T08:44:07.138Z,20.98
2019-03-22T08:46:40.599Z,20.98
2019-03-22T08:49:14.047Z,20.99
2019-03-22T08:51:49.819Z,21.00
2019-03-22T08:54:23.261Z,21.00
2019-03-22T08:56:56.758Z,21.04
2019-03-22T08:59:31.399Z,21.07
2019-03-22T09:02:04.692Z,21.09
2019-03-22T09:04:38.049Z,21.13
2019-03-22T09:07:11.418Z,21.20
2019-03-22T09:09:44.858Z,21.26
2019-03-22T09:12:18.361Z,21.41
2019-03-22T09:14:51.860Z,21.54
2019-03-22T09:17:25.273Z,21.63
2019-03-22T09:19:58.817Z,21.71
2019-03-22T09:22:32.136Z,21.79
2019-03-22T09:25:06.013Z,21.82
2019-03-22T09:27:39.310Z,21.87
2019-03-22T09:30:13.837Z,21.91
2019-03-22T09:32:47.245Z,21.95
2019-03-22T09:35:22.313Z,21.96
2019-03-22T09:37:56.021Z,21.97
2019-03-22T09:40:30.583Z,21.58
2019-03-22T09:43:03.903Z,22.01
2019-03-22T09:45:37.322Z,22.02
2019-03-22T09:48:10.692Z,22.07
2019-03-22T09:50:44.038Z,22.07
2019-03-22T09:53:17.448Z,22.03
2019-03-22T09:55:50.791Z,22.02
2019-03-22T09:58:24.250Z,22.01
2019-03-22T10:00:59.135Z,22.04
2019-03-22T10:03:32.456Z,22.07
2019-03-22T10:06:05.885Z,22.00
2019-03-22T10:08:39.335Z,22.01
2019-03-22T10:11:12.863Z,22.02
2019-03-22T10:13:48.309Z,21.96
2019-03-22T10:16:21.361Z,21.99
2019-03-22T10:18:54.720Z,21.97
2019-03-22T10:21:28.215Z,21.93
2019-03-22T10:24:01.566Z,21.90
2019-03-22T10:26:36.590Z,21.95
2019-03-22T10:29:10.380Z,21.96
2019-03-22T10:31:44.217Z,21.92
2019-03-22T10:34:17.508Z,21.92
2019-03-22T10:36:51.091Z,21.90
2019-03-22T10:39:24.388Z,21.89
2019-03-22T10:41:57.794Z,21.87
2019-03-22T10:44:31.270Z,21.83
2019-03-22T10:47:04.638Z,21.86
2019-03-22T10:49:38.260Z,21.80
2019-03-22T10:52:11.694Z,21.84
2019-03-22T10:54:45.401Z,21.70
2019-03-22T10:57:19.180Z,21.77
2019-03-22T10:59:52.608Z,21.75
2019-03-22T11:02:25.956Z,21.74
2019-03-22T11:04:59.583Z,21.76
2019-03-22T11:07:32.930Z,21.74
2019-03-22T11:10:08.606Z,21.76
2019-03-22T11:12:43.038Z,21.67
2019-03-22T11:15:17.967Z,21.71
2019-03-22T11:17:51.454Z,21.69
2019-03-22T11:20:24.768Z,21.75
2019-03-22T11:22:58.112Z,21.75
2019-03-22T11:25:31.431Z,21.78
2019-03-22T11:28:04.776Z,21.80
2019-03-22T11:30:39.864Z,21.81
2019-03-22T11:33:13.372Z,21.81
2019-03-22T11:35:46.687Z,21.78
2019-03-22T11:38:19.861Z,21.81
2019-03-22T11:40:55.528Z,21.80
2019-03-22T11:43:29.094Z,21.82
2019-03-22T11:46:02.262Z,21.82
2019-03-22T11:48:37.241Z,21.83
2019-03-22T11:51:10.589Z,21.82
2019-03-22T11:53:44.069Z,21.84
2019-03-22T11:56:17.589Z,21.82
2019-03-22T11:58:50.900Z,21.80
2019-03-22T12:01:24.244Z,21.83
2019-03-22T12:03:57.588Z,21.80
2019-03-22T12:06:30.931Z,21.78
2019-03-22T12:09:06.096Z,21.71
2019-03-22T12:11:39.471Z,21.67
2019-03-22T12:14:13.065Z,21.64
2019-03-22T12:16:46.570Z,21.61
2019-03-22T12:19:19.948Z,21.56
2019-03-22T12:21:53.431Z,21.53
2019-03-22T12:24:26.928Z,21.51
2019-03-22T12:27:00.901Z,21.47
2019-03-22T12:29:35.038Z,21.46
2019-03-22T12:32:08.427Z,21.45
2019-03-22T12:34:41.738Z,21.45
2019-03-22T12:37:15.183Z,21.41
2019-03-22T12:39:48.658Z,21.44
2019-03-22T12:42:22.056Z,21.44
2019-03-22T12:44:55.508Z,21.43
2019-03-22T12:47:28.857Z,21.48
2019-03-22T12:50:02.213Z,21.45
2019-03-22T12:52:35.654Z,21.43
2019-03-22T12:55:10.335Z,21.41
2019-03-22T12:57:43.685Z,21.43
2019-03-22T13:00:22.203Z,21.44
2019-03-22T13:02:55.662Z,21.45
2019-03-22T13:05:29.034Z,21.49
2019-03-22T13:08:02.579Z,21.53
2019-03-22T13:10:36.238Z,21.58
2019-03-22T13:13:09.724Z,21.57
2019-03-22T13:15:43.090Z,21.58
2019-03-22T13:18:17.995Z,21.57
2019-03-22T13:20:51.345Z,21.59
2019-03-22T13:23:25.187Z,21.62
2019-03-22T13:25:58.461Z,21.64
2019-03-22T13:28:31.940Z,21.67
2019-03-22T13:31:05.440Z,21.68
2019-03-22T13:33:38.984Z,21.74
2019-03-22T13:36:12.361Z,21.77
2019-03-22T13:38:45.744Z,21.82
2019-03-22T13:41:19.266Z,21.89
2019-03-22T13:43:52.603Z,21.95
2019-03-22T13:46:25.795Z,22.03
2019-03-22T13:48:59.269Z,22.11
2019-03-22T13:51:32.606Z,22.20
2019-03-22T13:54:06.118Z,22.27
2019-03-22T13:56:39.670Z,22.37
2019-03-22T13:59:13.314Z,22.50
2019-03-22T14:01:47.016Z,22.55
2019-03-22T14:04:20.334Z,22.62
2019-03-22T14:06:53.670Z,22.72
2019-03-22T14:09:27.011Z,22.88
2019-03-22T14:12:00.329Z,23.00
2019-03-22T14:14:33.480Z,23.17
2019-03-22T14:17:08.419Z,23.29
2019-03-22T14:19:41.811Z,23.40
2019-03-22T14:22:16.131Z,23.50
2019-03-22T14:24:49.565Z,23.58
2019-03-22T14:27:23.016Z,23.66
2019-03-22T14:29:56.201Z,23.69
2019-03-22T14:32:29.601Z,23.72
2019-03-22T14:35:04.506Z,23.68
2019-03-22T14:37:38.491Z,23.62
2019-03-22T14:40:15.581Z,23.60
2019-03-22T14:42:46.861Z,23.64
2019-03-22T14:45:20.267Z,23.65
2019-03-22T14:47:53.762Z,23.64
2019-03-22T14:50:27.112Z,23.63
2019-03-22T14:53:00.520Z,23.63
2019-03-22T14:55:33.923Z,23.62
2019-03-22T14:58:07.277Z,23.66
2019-03-22T15:00:40.801Z,23.66
2019-03-22T15:03:22.347Z,23.65
2019-03-22T15:05:50.582Z,23.62
2019-03-22T15:08:23.941Z,23.59
2019-03-22T15:10:57.166Z,23.58
2019-03-22T15:13:30.713Z,23.56
2019-03-22T15:16:04.365Z,23.55
2019-03-22T15:18:37.836Z,23.59
2019-03-22T15:21:11.263Z,23.60
2019-03-22T15:23:48.184Z,23.63
2019-03-22T15:26:22.009Z,23.63
2019-03-22T15:28:57.094Z,23.61
2019-03-22T15:31:30.830Z,23.59
2019-03-22T15:34:04.847Z,23.58
2019-03-22T15:36:39.944Z,23.56
2019-03-22T15:39:17.848Z,23.56
2019-03-22T15:41:53.131Z,23.56
2019-03-22T15:44:26.985Z,23.56
2019-03-22T15:47:01.952Z,23.56
2019-03-22T15:49:37.407Z,23.52
2019-03-22T15:52:11.138Z,23.53
2019-03-22T15:54:44.993Z,23.53
2019-03-22T15:57:18.530Z,23.52
2019-03-22T15:59:51.864Z,23.53
2019-03-22T16:02:25.262Z,23.55
2019-03-22T16:04:58.943Z,23.54
2019-03-22T16:07:32.323Z,23.54
2019-03-22T16:10:09.812Z,23.55
2019-03-22T16:12:43.780Z,23.50
2019-03-22T16:15:17.495Z,23.46
2019-03-22T16:17:51.022Z,23.42
2019-03-22T16:20:24.442Z,23.39
2019-03-22T16:22:57.859Z,23.39
2019-03-22T16:25:31.172Z,23.36
2019-03-22T16:28:04.612Z,23.35
2019-03-22T16:30:38.061Z,23.33
2019-03-22T16:33:11.410Z,23.32
2019-03-22T16:35:45.047Z,23.31
2019-03-22T16:38:20.016Z,23.29
2019-03-22T16:40:53.334Z,23.26
2019-03-22T16:43:26.728Z,23.24
2019-03-22T16:46:00.127Z,23.23
2019-03-22T16:48:33.609Z,23.21
2019-03-22T16:51:06.950Z,23.18
2019-03-22T16:53:40.507Z,23.13
2019-03-22T16:56:13.923Z,23.08
2019-03-22T16:58:47.383Z,23.05
2019-03-22T17:01:20.701Z,23.01
2019-03-22T17:04:04.147Z,22.96
2019-03-22T17:06:30.766Z,22.90
2019-03-22T17:09:05.511Z,22.85
2019-03-22T17:11:38.914Z,22.83
2019-03-22T17:14:13.926Z,22.79
2019-03-22T17:16:47.291Z,22.75
2019-03-22T17:19:20.646Z,22.71
2019-03-22T17:21:54.036Z,22.68
2019-03-22T17:24:28.041Z,22.68
2019-03-22T17:27:01.434Z,22.64
2019-03-22T17:29:34.776Z,22.62
2019-03-22T17:32:08.278Z,22.59
2019-03-22T17:34:42.127Z,22.56
2019-03-22T17:37:15.726Z,22.52
2019-03-22T17:39:49.212Z,22.50
2019-03-22T17:42:22.629Z,22.48
2019-03-22T17:44:55.930Z,22.47
2019-03-22T17:47:29.302Z,22.43
2019-03-22T17:50:04.181Z,22.41
2019-03-22T17:52:37.537Z,22.38
2019-03-22T17:55:10.854Z,22.35
2019-03-22T17:57:44.199Z,22.32
2019-03-22T18:00:18.783Z,22.29
2019-03-22T18:02:52.219Z,22.27
2019-03-22T18:05:25.557Z,22.24
2019-03-22T18:07:58.910Z,22.23
2019-03-22T18:10:32.278Z,22.22
2019-03-22T18:13:05.597Z,22.20
2019-03-22T18:15:38.912Z,22.17
2019-03-22T18:18:12.257Z,22.15
2019-03-22T18:20:45.601Z,22.15
2019-03-22T18:23:19.282Z,22.14
2019-03-22T18:25:52.662Z,22.14
2019-03-22T18:28:25.996Z,22.12
2019-03-22T18:30:59.466Z,22.12
2019-03-22T18:33:32.842Z,22.11
2019-03-22T18:36:06.232Z,22.09
2019-03-22T18:38:39.584Z,22.09
2019-03-22T18:41:13.959Z,22.07
2019-03-22T18:43:47.400Z,22.07
2019-03-22T18:46:20.805Z,22.05
2019-03-22T18:48:54.371Z,22.03
2019-03-22T18:51:27.711Z,22.01
2019-03-22T18:54:01.192Z,21.98
2019-03-22T18:56:34.560Z,21.97
2019-03-22T18:59:08.120Z,21.96
2019-03-22T19:01:41.507Z,21.94
2019-03-22T19:04:16.208Z,21.90
2019-03-22T19:06:49.644Z,21.88
2019-03-22T19:09:23.005Z,21.86
2019-03-22T19:11:56.631Z,21.85
2019-03-22T19:14:30.188Z,21.81
2019-03-22T19:17:03.598Z,21.78
2019-03-22T19:19:37.069Z,21.77
2019-03-22T19:22:10.505Z,21.75
2019-03-22T19:24:43.849Z,21.73
2019-03-22T19:27:17.172Z,21.71
2019-03-22T19:29:50.518Z,21.69
2019-03-22T19:32:24.005Z,21.66
2019-03-22T19:34:57.424Z,21.63
2019-03-22T19:37:30.881Z,21.61
2019-03-22T19:40:06.996Z,21.06
2019-03-22T19:42:40.215Z,21.59
2019-03-22T19:45:14.090Z,21.56
2019-03-22T19:47:49.084Z,21.53
2019-03-22T19:50:22.628Z,21.51
2019-03-22T19:52:56.225Z,21.50
2019-03-22T19:55:29.604Z,21.48
2019-03-22T19:58:02.919Z,21.47
2019-03-22T20:00:36.276Z,21.46
2019-03-22T20:03:10.143Z,21.45
2019-03-22T20:05:43.496Z,21.43
2019-03-22T20:08:16.811Z,21.41
2019-03-22T20:10:50.206Z,21.40
2019-03-22T20:13:23.526Z,21.39
2019-03-22T20:15:56.883Z,21.38
2019-03-22T20:18:30.218Z,21.36
2019-03-22T20:21:03.574Z,21.35
2019-03-22T20:23:36.967Z,21.35
2019-03-22T20:26:10.307Z,21.36
2019-03-22T20:28:43.800Z,21.40
2019-03-22T20:31:17.217Z,21.44
2019-03-22T20:33:52.177Z,21.50
2019-03-22T20:36:26.076Z,21.57
2019-03-22T20:38:59.411Z,21.65
2019-03-22T20:41:32.815Z,21.74
2019-03-22T20:44:06.180Z,21.83
2019-03-22T20:46:39.652Z,21.95
2019-03-22T20:49:13.145Z,22.04
2019-03-22T20:51:46.837Z,22.11
2019-03-22T20:54:20.176Z,22.19
2019-03-22T20:56:53.704Z,22.24
2019-03-22T20:59:27.019Z,22.28
2019-03-22T21:02:00.608Z,22.33
2019-03-22T21:04:35.227Z,22.31
2019-03-22T21:07:08.671Z,22.31
2019-03-22T21:09:42.052Z,22.34
2019-03-22T21:12:15.592Z,22.37
2019-03-22T21:14:49.015Z,22.38
2019-03-22T21:17:22.397Z,22.44
2019-03-22T21:19:56.128Z,22.43
2019-03-22T21:22:29.438Z,22.43
2019-03-22T21:25:04.971Z,22.46
2019-03-22T21:27:38.264Z,22.51
2019-03-22T21:30:14.889Z,22.59
2019-03-22T21:32:48.224Z,22.57
2019-03-22T21:35:23.029Z,22.61
2019-03-22T21:37:56.637Z,22.63
2019-03-22T21:40:29.942Z,22.64
2019-03-22T21:43:03.407Z,22.68
2019-03-22T21:45:36.925Z,22.67
2019-03-22T21:48:10.811Z,22.68
2019-03-22T21:50:44.510Z,22.66
2019-03-22T21:53:19.574Z,22.67
2019-03-22T21:55:54.257Z,22.68
2019-03-22T21:58:27.769Z,22.44
2019-03-22T22:01:01.089Z,22.52
2019-03-22T22:03:34.519Z,22.67
2019-03-22T22:06:07.854Z,22.66
2019-03-22T22:08:41.334Z,22.65
2019-03-22T22:11:14.838Z,22.59
2019-03-22T22:13:48.476Z,22.60
2019-03-22T22:16:21.813Z,22.58
2019-03-22T22:18:56.946Z,22.60
2019-03-22T22:21:30.322Z,22.60
2019-03-22T22:24:03.891Z,22.61
2019-03-22T22:26:38.311Z,22.57
2019-03-22T22:29:12.166Z,22.58
2019-03-22T22:31:46.963Z,22.59
2019-03-22T22:34:20.354Z,22.58
2019-03-22T22:36:55.333Z,22.56
2019-03-22T22:39:28.900Z,22.58
2019-03-22T22:42:02.321Z,22.55
2019-03-22T22:44:36.126Z,22.56
2019-03-22T22:47:09.515Z,22.53
2019-03-22T22:49:43.163Z,22.51
2019-03-22T22:52:16.659Z,22.51
2019-03-22T22:54:50.290Z,22.46
2019-03-22T22:57:23.622Z,22.43
2019-03-22T22:59:56.986Z,22.41
2019-03-22T23:02:30.517Z,22.39
2019-03-22T23:05:05.360Z,22.34
2019-03-22T23:07:39.156Z,22.33
2019-03-22T23:10:12.814Z,22.30
2019-03-22T23:12:46.413Z,22.28
2019-03-22T23:15:19.543Z,22.25
2019-03-22T23:17:53.023Z,22.22
2019-03-22T23:20:26.316Z,22.19
2019-03-22T23:22:59.737Z,22.13
2019-03-22T23:25:33.292Z,22.11
2019-03-22T23:28:06.942Z,22.10
2019-03-22T23:30:40.382Z,22.07
2019-03-22T23:33:15.431Z,22.06
2019-03-22T23:35:49.028Z,22.01
2019-03-22T23:38:23.539Z,22.01
2019-03-22T23:40:57.138Z,21.99
2019-03-22T23:43:31.710Z,21.98
2019-03-22T23:46:05.454Z,21.95
2019-03-22T23:48:38.776Z,21.92
2019-03-22T23:51:12.093Z,21.90
2019-03-22T23:53:45.468Z,21.89
2019-03-22T23:56:18.847Z,21.88
2019-03-22T23:58:52.297Z,21.82
